createdAt,value
2022-08-21T00:00:28.936Z,24.45
2022-08-21T00:02:57.627Z,21.58
2022-08-21T00:05:25.688Z,21.38
2022-08-21T00:07:53.248Z,18.40
2022-08-21T00:10:20.722Z,21.42
2022-08-21T00:12:48.212Z,17.63
2022-08-21T00:15:18.518Z,16.67
2022-08-21T00:17:46.042Z,15.60
2022-08-21T00:20:15.159Z,13.57
2022-08-21T00:22:42.853Z,19.10
2022-08-21T00:25:10.674Z,16.50
2022-08-21T00:27:38.447Z,11.75
2022-08-21T00:30:06.645Z,12.63
2022-08-21T00:32:35.844Z,17.83
2022-08-21T00:35:03.285Z,12.82
2022-08-21T00:37:30.740Z,15.75
2022-08-21T00:40:02.763Z,14.82
2022-08-21T00:42:31.500Z,12.88
2022-08-21T00:44:59.876Z,14.20
2022-08-21T00:47:27.359Z,11.55
2022-08-21T00:49:56.132Z,11.82
2022-08-21T00:52:26.586Z,11.88
2022-08-21T00:54:55.369Z,14.20
2022-08-21T00:59:53.813Z,13.25
2022-08-21T01:02:21.977Z,16.85
2022-08-21T01:04:49.685Z,13.63
2022-08-21T01:07:18.858Z,12.88
2022-08-21T01:09:48.259Z,15.97
2022-08-21T01:12:16.771Z,13.75
2022-08-21T01:14:44.703Z,14.10
2022-08-21T01:17:12.389Z,13.48
2022-08-21T01:19:40.324Z,12.43
2022-08-21T01:22:09.275Z,13.52
2022-08-21T01:24:36.731Z,15.25
2022-08-21T01:27:04.766Z,14.90
2022-08-21T01:29:34.119Z,19.13
2022-08-21T01:32:04.945Z,17.00
2022-08-21T01:34:32.688Z,14.45
2022-08-21T01:37:00.122Z,15.15
2022-08-21T01:39:28.955Z,14.63
2022-08-21T01:41:56.459Z,15.52
2022-08-21T01:44:24.441Z,13.75
2022-08-21T01:46:52.377Z,14.70
2022-08-21T01:49:19.867Z,13.40
2022-08-21T01:51:47.308Z,15.52
2022-08-21T01:54:14.868Z,11.95
2022-08-21T01:56:44.767Z,11.75
2022-08-21T01:59:12.521Z,12.02
2022-08-21T02:01:40.317Z,13.77
2022-08-21T02:04:08.030Z,15.23
2022-08-21T02:06:35.652Z,13.93
2022-08-21T02:09:03.180Z,15.55
2022-08-21T02:11:30.638Z,12.10
2022-08-21T02:13:59.406Z,14.38
2022-08-21T02:16:27.185Z,13.63
2022-08-21T02:18:54.648Z,11.98
2022-08-21T02:21:22.138Z,12.68
2022-08-21T02:23:49.591Z,12.25
2022-08-21T02:26:17.048Z,11.43
2022-08-21T02:28:44.930Z,12.18
2022-08-21T02:31:14.023Z,13.48
2022-08-21T02:33:41.846Z,12.68
2022-08-21T02:36:10.168Z,15.13
2022-08-21T02:38:39.688Z,12.75
2022-08-21T02:41:08.535Z,12.30
2022-08-21T02:43:36.421Z,14.70
2022-08-21T02:46:05.169Z,12.52
2022-08-21T02:48:34.624Z,11.15
2022-08-21T02:51:02.874Z,11.25
2022-08-21T02:53:30.549Z,12.65
2022-08-21T02:55:58.943Z,12.45
2022-08-21T02:58:28.364Z,12.07
2022-08-21T03:00:56.121Z,10.95
2022-08-21T03:03:23.655Z,12.18
2022-08-21T03:05:52.546Z,12.65
2022-08-21T03:08:20.118Z,11.98
2022-08-21T03:10:50.014Z,12.25
2022-08-21T03:13:18.071Z,12.68
2022-08-21T03:15:45.986Z,11.15
2022-08-21T03:18:14.023Z,11.80
2022-08-21T03:20:42.410Z,17.40
2022-08-21T03:23:13.221Z,11.18
2022-08-21T03:25:42.304Z,12.60
2022-08-21T03:28:13.417Z,15.88
2022-08-21T03:30:41.458Z,15.90
2022-08-21T03:33:08.889Z,13.25
2022-08-21T03:35:39.894Z,11.77
2022-08-21T03:38:07.360Z,12.10
2022-08-21T03:40:36.422Z,13.70
2022-08-21T03:43:03.870Z,12.55
2022-08-21T03:45:31.408Z,12.90
2022-08-21T03:48:02.623Z,14.68
2022-08-21T03:50:33.355Z,14.70
2022-08-21T03:53:02.281Z,13.70
2022-08-21T03:55:29.745Z,14.52
2022-08-21T03:57:58.513Z,18.55
2022-08-21T04:00:26.355Z,16.55
2022-08-21T04:02:54.007Z,15.55
2022-08-21T04:05:28.236Z,14.82
2022-08-21T04:07:56.743Z,13.73
2022-08-21T04:10:25.654Z,13.00
2022-08-21T04:12:53.570Z,13.57
2022-08-21T04:15:22.884Z,13.77
2022-08-21T04:17:50.412Z,14.55
2022-08-21T04:20:18.159Z,11.05
2022-08-21T04:22:46.760Z,11.77
2022-08-21T04:25:14.594Z,12.23
2022-08-21T04:27:42.245Z,13.63
2022-08-21T04:30:10.707Z,10.65
2022-08-21T04:32:39.589Z,14.48
2022-08-21T04:35:09.314Z,13.90
2022-08-21T04:37:41.498Z,10.70
2022-08-21T04:40:11.442Z,11.55
2022-08-21T04:42:43.278Z,11.43
2022-08-21T04:45:10.815Z,12.40
2022-08-21T04:47:41.653Z,11.38
2022-08-21T04:50:20.355Z,11.27
2022-08-21T04:52:48.250Z,10.60
2022-08-21T04:55:16.147Z,10.68
2022-08-21T04:57:49.315Z,10.88
2022-08-21T05:00:19.614Z,10.40
2022-08-21T05:02:49.656Z,11.40
2022-08-21T05:05:17.734Z,11.35
2022-08-21T05:07:46.542Z,15.48
2022-08-21T05:10:14.887Z,12.23
2022-08-21T05:12:43.442Z,12.48
2022-08-21T05:15:13.267Z,13.38
2022-08-21T05:17:41.067Z,12.73
2022-08-21T05:20:10.679Z,12.38
2022-08-21T05:22:38.086Z,13.13
2022-08-21T05:25:10.110Z,10.48
2022-08-21T05:27:39.172Z,11.07
2022-08-21T05:30:08.290Z,11.40
2022-08-21T05:32:36.071Z,12.32
2022-08-21T05:35:03.639Z,12.63
2022-08-21T05:37:32.522Z,11.75
2022-08-21T05:40:04.615Z,11.77
2022-08-21T05:42:56.649Z,11.32
2022-08-21T05:45:41.351Z,12.00
2022-08-21T05:48:12.260Z,14.50
2022-08-21T05:50:39.774Z,11.55
2022-08-21T05:53:08.935Z,14.65
2022-08-21T05:55:41.332Z,15.45
2022-08-21T05:58:10.525Z,13.02
2022-08-21T06:00:38.028Z,12.82
2022-08-21T06:03:05.468Z,12.05
2022-08-21T06:05:36.640Z,14.18
2022-08-21T06:08:05.148Z,15.23
2022-08-21T06:10:33.968Z,11.25
2022-08-21T06:13:01.513Z,11.63
2022-08-21T06:15:28.980Z,12.68
2022-08-21T06:17:56.476Z,13.52
2022-08-21T06:20:24.353Z,14.70
2022-08-21T06:22:51.869Z,13.98
2022-08-21T06:25:19.636Z,12.60
2022-08-21T06:27:48.468Z,14.65
2022-08-21T06:30:15.947Z,14.20
2022-08-21T06:32:43.424Z,11.65
2022-08-21T06:35:12.227Z,14.82
2022-08-21T06:37:39.703Z,13.13
2022-08-21T06:40:12.392Z,15.27
2022-08-21T06:42:42.742Z,15.52
2022-08-21T06:45:12.291Z,14.52
2022-08-21T06:47:39.741Z,13.55
2022-08-21T06:50:08.504Z,13.43
2022-08-21T06:52:36.068Z,13.30
2022-08-21T06:55:03.538Z,14.60
2022-08-21T06:57:30.997Z,14.90
2022-08-21T06:59:58.451Z,13.65
2022-08-21T07:02:27.290Z,15.35
2022-08-21T07:04:54.779Z,13.98
2022-08-21T07:07:22.247Z,15.45
2022-08-21T07:09:49.662Z,13.68
2022-08-21T07:12:17.114Z,13.98
2022-08-21T07:14:44.662Z,14.05
2022-08-21T07:17:12.129Z,12.52
2022-08-21T07:19:40.902Z,13.55
2022-08-21T07:22:08.535Z,12.65
2022-08-21T07:24:36.017Z,12.65
2022-08-21T07:27:07.002Z,17.95
2022-08-21T07:29:36.948Z,15.30
2022-08-21T07:32:04.888Z,12.32
2022-08-21T07:34:32.511Z,14.23
2022-08-21T07:37:06.350Z,14.43
2022-08-21T07:39:38.261Z,12.45
2022-08-21T07:42:08.444Z,13.85
2022-08-21T07:44:36.145Z,15.40
2022-08-21T07:47:03.832Z,17.95
2022-08-21T07:49:31.275Z,18.50
2022-08-21T07:51:58.780Z,12.60
2022-08-21T07:54:33.639Z,14.40
2022-08-21T07:57:01.440Z,16.08
2022-08-21T07:59:29.200Z,12.77
2022-08-21T08:01:56.994Z,12.43
2022-08-21T08:04:26.444Z,11.30
2022-08-21T08:06:54.210Z,13.57
2022-08-21T08:09:21.697Z,15.15
2022-08-21T08:11:50.537Z,13.75
2022-08-21T08:14:18.066Z,12.77
2022-08-21T08:16:45.521Z,15.02
2022-08-21T08:19:12.961Z,11.27
2022-08-21T08:21:40.419Z,10.35
2022-08-21T08:24:19.358Z,12.63
2022-08-21T08:26:53.645Z,10.15
2022-08-21T08:29:23.324Z,13.82
2022-08-21T08:31:50.784Z,10.50
2022-08-21T08:34:23.586Z,11.27
2022-08-21T08:36:53.309Z,10.45
2022-08-21T08:39:26.987Z,11.25
2022-08-21T08:42:01.491Z,8.70
2022-08-21T08:44:30.346Z,7.40
2022-08-21T08:46:58.423Z,8.93
2022-08-21T08:49:29.160Z,12.60
2022-08-21T08:51:59.584Z,9.15
2022-08-21T08:54:32.393Z,10.93
2022-08-21T08:57:00.835Z,8.38
2022-08-21T08:59:29.382Z,10.00
2022-08-21T09:01:59.210Z,12.45
2022-08-21T09:04:29.534Z,10.60
2022-08-21T09:07:07.713Z,8.48
2022-08-21T09:09:39.076Z,9.48
2022-08-21T09:12:09.858Z,10.70
2022-08-21T09:14:45.827Z,6.70
2022-08-21T09:17:19.375Z,12.13
2022-08-21T09:19:52.778Z,7.40
2022-08-21T09:22:25.387Z,8.80
2022-08-21T09:24:58.349Z,10.40
2022-08-21T09:27:27.332Z,9.30
2022-08-21T09:29:55.405Z,9.00
2022-08-21T09:32:37.664Z,12.20
2022-08-21T09:35:07.731Z,6.22
2022-08-21T09:37:36.234Z,7.70
2022-08-21T09:40:04.803Z,11.70
2022-08-21T09:42:33.735Z,9.48
2022-08-21T09:45:10.997Z,12.38
2022-08-21T09:47:39.789Z,9.07
2022-08-21T09:50:12.563Z,7.93
2022-08-21T09:52:45.126Z,9.57
2022-08-21T09:55:38.101Z,8.95
2022-08-21T09:58:04.715Z,11.32
2022-08-21T10:00:33.389Z,8.98
2022-08-21T10:03:12.448Z,6.45
2022-08-21T10:05:40.254Z,8.80
2022-08-21T10:08:17.764Z,13.02
2022-08-21T10:10:45.293Z,11.25
2022-08-21T10:13:15.133Z,7.38
2022-08-21T10:15:49.288Z,6.85
2022-08-21T10:18:21.575Z,7.50
2022-08-21T10:20:54.888Z,9.68
2022-08-21T10:23:40.913Z,10.40
2022-08-21T10:26:14.568Z,6.18
2022-08-21T10:28:46.082Z,5.63
2022-08-21T10:31:15.709Z,5.65
2022-08-21T10:33:48.720Z,6.53
2022-08-21T10:36:21.155Z,8.00
2022-08-21T10:39:23.402Z,7.25
2022-08-21T10:41:50.701Z,6.20
2022-08-21T10:44:24.902Z,5.43
2022-08-21T10:46:56.462Z,6.20
2022-08-21T10:49:29.074Z,8.38
2022-08-21T10:52:09.169Z,8.63
2022-08-21T10:54:41.412Z,5.68
2022-08-21T10:57:26.097Z,5.25
2022-08-21T11:00:02.813Z,7.75
2022-08-21T11:02:33.810Z,8.73
2022-08-21T11:05:06.280Z,6.40
2022-08-21T11:07:36.292Z,5.88
2022-08-21T11:10:07.298Z,9.30
2022-08-21T11:12:40.667Z,5.97
2022-08-21T11:15:29.350Z,7.43
2022-08-21T11:18:02.227Z,4.78
2022-08-21T11:20:34.672Z,6.97
2022-08-21T11:23:05.365Z,7.07
2022-08-21T11:25:36.713Z,4.93
2022-08-21T11:28:10.813Z,4.22
2022-08-21T11:30:45.220Z,5.60
2022-08-21T11:33:22.523Z,5.47
2022-08-21T11:35:54.540Z,8.10
2022-08-21T11:38:27.049Z,5.72
2022-08-21T11:41:03.157Z,6.40
2022-08-21T11:43:37.678Z,4.85
2022-08-21T11:46:11.909Z,6.63
2022-08-21T11:48:47.864Z,5.68
2022-08-21T11:51:18.123Z,6.88
2022-08-21T11:53:54.194Z,6.22
2022-08-21T11:56:23.587Z,4.50
2022-08-21T11:58:52.874Z,4.88
2022-08-21T12:01:23.686Z,4.93
2022-08-21T12:03:54.661Z,6.63
2022-08-21T12:06:31.955Z,3.95
2022-08-21T12:09:00.444Z,5.13
2022-08-21T12:11:30.939Z,6.40
2022-08-21T12:13:59.799Z,6.70
2022-08-21T12:16:31.474Z,5.70
2022-08-21T12:19:05.179Z,5.13
2022-08-21T12:21:34.081Z,5.68
2022-08-21T12:24:02.921Z,6.35
2022-08-21T12:26:31.246Z,6.13
2022-08-21T12:29:12.511Z,5.80
2022-08-21T12:31:52.572Z,6.22
2022-08-21T12:34:21.617Z,3.75
2022-08-21T12:36:55.261Z,7.40
2022-08-21T12:39:25.531Z,5.75
2022-08-21T12:41:57.977Z,4.38
2022-08-21T12:44:32.951Z,7.18
2022-08-21T12:47:03.268Z,5.30
2022-08-21T12:49:33.426Z,5.30
2022-08-21T12:52:07.274Z,6.18
2022-08-21T12:54:39.510Z,3.53
2022-08-21T12:57:08.368Z,5.75
2022-08-21T12:59:39.643Z,3.28
2022-08-21T13:02:14.695Z,7.43
2022-08-21T13:04:43.084Z,4.22
2022-08-21T13:07:15.142Z,3.00
2022-08-21T13:09:45.354Z,5.35
2022-08-21T13:12:13.383Z,3.67
2022-08-21T13:14:46.052Z,3.58
2022-08-21T13:17:23.708Z,3.65
2022-08-21T13:20:00.225Z,4.85
2022-08-21T13:22:34.177Z,5.55
2022-08-21T13:25:06.814Z,4.03
2022-08-21T13:27:35.509Z,3.63
2022-08-21T13:30:08.030Z,4.28
2022-08-21T13:32:36.875Z,3.83
2022-08-21T13:35:17.233Z,4.45
2022-08-21T13:37:47.874Z,4.93
2022-08-21T13:40:17.537Z,6.43
2022-08-21T13:42:46.718Z,4.30
2022-08-21T13:45:19.015Z,4.22
2022-08-21T13:47:47.795Z,4.20
2022-08-21T13:50:16.550Z,4.70
2022-08-21T13:52:56.037Z,4.80
2022-08-21T13:55:27.401Z,6.28
2022-08-21T13:58:01.139Z,3.55
2022-08-21T14:00:29.807Z,3.97
2022-08-21T14:03:02.329Z,2.92
2022-08-21T14:05:32.021Z,4.13
2022-08-21T14:08:04.068Z,5.28
2022-08-21T14:10:31.562Z,5.82
2022-08-21T14:13:00.644Z,4.75
2022-08-21T14:15:30.271Z,5.30
2022-08-21T14:18:08.681Z,5.27
2022-08-21T14:20:37.463Z,5.63
2022-08-21T14:23:06.250Z,4.60
2022-08-21T14:25:42.017Z,3.92
2022-08-21T14:28:19.590Z,5.20
2022-08-21T14:30:47.575Z,5.05
2022-08-21T14:33:19.918Z,3.67
2022-08-21T14:35:47.353Z,6.13
2022-08-21T14:38:17.103Z,3.53
2022-08-21T14:40:44.785Z,7.95
2022-08-21T14:43:12.233Z,3.60
2022-08-21T14:45:41.533Z,4.32
2022-08-21T14:48:09.570Z,3.13
2022-08-21T14:50:37.255Z,3.65
2022-08-21T14:53:11.326Z,3.78
2022-08-21T14:55:54.596Z,5.18
2022-08-21T14:58:23.833Z,2.63
2022-08-21T15:00:51.531Z,5.22
2022-08-21T15:03:19.267Z,4.72
2022-08-21T15:05:46.977Z,3.83
2022-08-21T15:08:14.421Z,3.15
2022-08-21T15:11:02.182Z,4.85
2022-08-21T15:13:31.613Z,3.88
2022-08-21T15:15:59.268Z,4.40
2022-08-21T15:18:27.642Z,3.17
2022-08-21T15:20:55.101Z,3.38
2022-08-21T15:23:22.586Z,4.38
2022-08-21T15:25:51.770Z,3.00
2022-08-21T15:28:19.642Z,1.95
2022-08-21T15:30:47.648Z,5.35
2022-08-21T15:33:15.425Z,2.55
2022-08-21T15:35:42.942Z,3.38
2022-08-21T15:38:11.414Z,2.55
2022-08-21T15:40:39.772Z,4.70
2022-08-21T15:43:21.067Z,3.88
2022-08-21T15:45:57.895Z,1.65
2022-08-21T15:48:25.382Z,5.32
2022-08-21T15:50:52.811Z,5.30
2022-08-21T15:53:20.295Z,3.20
2022-08-21T15:55:47.727Z,3.20
2022-08-21T15:58:17.165Z,4.20
2022-08-21T16:00:47.792Z,5.55
2022-08-21T16:03:17.620Z,5.32
2022-08-21T16:05:45.422Z,3.70
2022-08-21T16:08:12.888Z,3.25
2022-08-21T16:10:40.527Z,4.15
2022-08-21T16:13:09.037Z,3.50
2022-08-21T16:15:36.547Z,5.45
2022-08-21T16:18:06.141Z,5.60
2022-08-21T16:20:33.701Z,5.53
2022-08-21T16:23:01.563Z,3.45
2022-08-21T16:25:29.195Z,6.03
2022-08-21T16:27:59.789Z,6.43
2022-08-21T16:30:28.692Z,5.60
2022-08-21T16:32:56.233Z,6.90
2022-08-21T16:35:26.037Z,8.55
2022-08-21T16:37:53.675Z,4.07
2022-08-21T16:40:22.930Z,8.38
2022-08-21T16:42:50.942Z,7.88
2022-08-21T16:45:20.085Z,4.85
2022-08-21T16:47:47.598Z,5.97
2022-08-21T16:50:16.774Z,8.55
2022-08-21T16:52:45.563Z,5.15
2022-08-21T16:55:13.085Z,6.07
2022-08-21T16:57:41.218Z,4.07
2022-08-21T17:00:10.572Z,6.90
2022-08-21T17:02:39.681Z,7.88
2022-08-21T17:05:09.011Z,6.63
2022-08-21T17:07:42.403Z,4.35
2022-08-21T17:10:12.201Z,7.70
2022-08-21T17:12:40.805Z,6.15
2022-08-21T17:15:13.649Z,9.82
2022-08-21T17:17:42.114Z,4.65
2022-08-21T17:20:10.125Z,7.45
2022-08-21T17:22:37.537Z,6.10
2022-08-21T17:25:05.411Z,6.70
2022-08-21T17:27:34.241Z,6.78
2022-08-21T17:30:01.882Z,5.05
2022-08-21T17:32:29.372Z,9.98
2022-08-21T17:34:56.799Z,5.50
2022-08-21T17:37:28.639Z,7.53
2022-08-21T17:39:56.725Z,5.70
2022-08-21T17:42:25.169Z,4.28
2022-08-21T17:44:56.366Z,4.00
2022-08-21T17:47:24.112Z,7.68
2022-08-21T17:49:51.705Z,4.22
2022-08-21T17:52:19.189Z,6.10
2022-08-21T17:54:46.623Z,7.32
2022-08-21T17:57:16.183Z,5.38
2022-08-21T17:59:43.604Z,4.65
2022-08-21T18:02:20.181Z,7.10
2022-08-21T18:04:48.301Z,4.10
2022-08-21T18:07:25.319Z,6.72
2022-08-21T18:10:00.433Z,5.03
2022-08-21T18:12:27.898Z,3.65
2022-08-21T18:14:55.366Z,4.10
2022-08-21T18:17:24.450Z,8.68
2022-08-21T18:19:51.913Z,5.40
2022-08-21T18:22:19.330Z,5.72
2022-08-21T18:24:46.747Z,8.73
2022-08-21T18:27:15.060Z,5.95
2022-08-21T18:29:47.569Z,6.82
2022-08-21T18:32:30.327Z,5.68
2022-08-21T18:35:00.353Z,6.30
2022-08-21T18:37:27.871Z,5.05
2022-08-21T18:39:55.391Z,5.82
2022-08-21T18:42:28.506Z,4.97
2022-08-21T18:44:58.617Z,4.60
2022-08-21T18:47:28.690Z,5.47
2022-08-21T18:49:56.408Z,2.87
2022-08-21T18:52:28.350Z,5.57
2022-08-21T18:54:56.240Z,4.63
2022-08-21T18:57:24.088Z,4.20
2022-08-21T18:59:51.512Z,7.30
2022-08-21T19:02:19.193Z,5.00
2022-08-21T19:04:47.996Z,3.65
2022-08-21T19:07:16.260Z,7.00
2022-08-21T19:10:01.844Z,9.60
2022-08-21T19:12:33.029Z,4.93
2022-08-21T19:15:01.210Z,6.82
2022-08-21T19:17:28.833Z,3.83
2022-08-21T19:19:57.705Z,6.07
2022-08-21T19:22:25.139Z,3.90
2022-08-21T19:24:53.909Z,5.07
2022-08-21T19:27:21.375Z,4.65
2022-08-21T19:29:50.629Z,4.70
2022-08-21T19:32:21.299Z,5.63
2022-08-21T19:34:49.835Z,7.63
2022-08-21T19:37:20.364Z,6.90
2022-08-21T19:39:48.795Z,9.43
2022-08-21T19:42:22.054Z,7.55
2022-08-21T19:44:57.639Z,6.15
2022-08-21T19:47:29.534Z,4.25
2022-08-21T19:50:17.959Z,5.03
2022-08-21T19:52:51.436Z,4.30
2022-08-21T19:55:19.376Z,4.22
2022-08-21T19:57:48.230Z,5.43
2022-08-21T20:00:17.109Z,3.95
2022-08-21T20:02:47.790Z,8.07
2022-08-21T20:05:15.891Z,4.57
2022-08-21T20:07:46.152Z,6.53
2022-08-21T20:10:13.833Z,7.07
2022-08-21T20:12:41.716Z,3.22
2022-08-21T20:15:10.721Z,8.27
2022-08-21T20:17:38.689Z,5.55
2022-08-21T20:20:06.676Z,7.85
2022-08-21T20:22:34.517Z,6.38
2022-08-21T20:25:01.977Z,4.72
2022-08-21T20:27:29.459Z,8.50
2022-08-21T20:29:57.027Z,8.18
2022-08-21T20:32:26.173Z,8.13
2022-08-21T20:34:53.872Z,3.92
2022-08-21T20:37:36.770Z,5.75
2022-08-21T20:40:07.911Z,4.03
2022-08-21T20:42:35.401Z,4.85
2022-08-21T20:45:08.242Z,4.65
2022-08-21T20:47:37.932Z,4.07
2022-08-21T20:50:13.532Z,3.75
2022-08-21T20:52:42.195Z,6.57
2022-08-21T20:55:11.579Z,6.75
2022-08-21T20:57:40.963Z,6.05
2022-08-21T21:00:14.507Z,7.75
2022-08-21T21:02:48.669Z,6.78
2022-08-21T21:05:17.712Z,6.05
2022-08-21T21:07:51.654Z,8.35
2022-08-21T21:10:35.949Z,4.38
2022-08-21T21:13:06.276Z,8.02
2022-08-21T21:15:35.392Z,5.07
2022-08-21T21:18:07.828Z,5.43
2022-08-21T21:20:45.843Z,5.68
2022-08-21T21:23:21.819Z,6.20
2022-08-21T21:25:54.519Z,6.70
2022-08-21T21:28:27.143Z,7.00
2022-08-21T21:33:28.598Z,9.02
2022-08-21T21:36:00.188Z,10.00
2022-08-21T21:38:32.482Z,5.60
2022-08-21T21:41:07.878Z,7.72
2022-08-21T21:43:51.621Z,5.82
2022-08-21T21:46:27.520Z,9.13
2022-08-21T21:49:01.617Z,9.93
2022-08-21T21:51:39.018Z,7.10
2022-08-21T21:54:12.072Z,8.32
2022-08-21T21:56:48.230Z,4.97
2022-08-21T21:59:25.263Z,8.57
2022-08-21T22:02:01.610Z,7.88
2022-08-21T22:04:36.369Z,6.97
2022-08-21T22:07:08.035Z,12.27
2022-08-21T22:09:44.056Z,6.47
2022-08-21T22:12:20.185Z,8.35
2022-08-21T22:14:48.082Z,9.65
2022-08-21T22:17:21.255Z,7.78
2022-08-21T22:19:52.254Z,7.53
2022-08-21T22:22:22.169Z,7.07
2022-08-21T22:24:51.367Z,7.05
2022-08-21T22:27:20.819Z,7.93
2022-08-21T22:29:49.583Z,7.35
2022-08-21T22:32:23.748Z,7.72
2022-08-21T22:35:09.495Z,10.02
2022-08-21T22:37:38.451Z,7.38
2022-08-21T22:40:06.944Z,10.45
2022-08-21T22:42:34.432Z,8.80
2022-08-21T22:45:02.829Z,6.22
2022-08-21T22:47:34.514Z,9.15
2022-08-21T22:50:05.066Z,9.27
2022-08-21T22:52:35.343Z,7.55
2022-08-21T22:55:04.176Z,11.25
2022-08-21T22:57:32.997Z,8.20
2022-08-21T23:00:02.695Z,11.23
2022-08-21T23:02:33.966Z,8.00
2022-08-21T23:05:03.360Z,7.63
2022-08-21T23:07:32.747Z,9.75
2022-08-21T23:10:02.171Z,9.25
2022-08-21T23:12:34.088Z,7.85
2022-08-21T23:15:03.861Z,8.73
2022-08-21T23:17:34.282Z,7.32
2022-08-21T23:20:09.904Z,8.75
2022-08-21T23:22:39.437Z,8.18
2022-08-21T23:25:21.046Z,7.43
2022-08-21T23:27:52.401Z,5.85
2022-08-21T23:30:22.441Z,4.22
2022-08-21T23:33:07.369Z,4.82
2022-08-21T23:35:59.250Z,4.57
2022-08-21T23:38:35.513Z,9.18
2022-08-21T23:41:11.243Z,4.97
2022-08-21T23:43:42.552Z,8.40
2022-08-21T23:48:43.447Z,10.23
2022-08-21T23:51:12.398Z,6.15
2022-08-21T23:53:50.469Z,4.78
2022-08-21T23:56:26.038Z,7.63
2022-08-21T23:59:00.653Z,8.27
